Create Custom Reports and Graphics: Custom Report

Soquel - CalFire

Current Conditions

6/24/19 8:45 AM (-07:00)
Updated Every 15 Minutes
Temp 63.1 °F   3.0
RH 57 %   4
Dew Pt 47.5 °F   0.6
Wind Spd 0.1 mph
Wind Dir NNE | 17 °
Wind Gust 1.2 mph   0.8
Latest Rain 0.00 In
Daily Rain 0.00 In
Leaf Wet 0.0 mins
Daily Min Temp 51.9 °F   8.1
Daily Max Temp 63.9 °F   2.9

Daily Summary

Last 30 Days

Daily Data | America/Los_Angeles
as of 6/24/19 8:52 AM PDT
Date Daily Max Temp (°F) Daily Min Temp (°F) Daily Rain (In) Seasonal Rainfall (In) Daily Solar Rad (Cal/cm2) Daily ETo (in) Wind Spd (mph) Daily Max Wind (mph) Max Wind Dir (°) Dew Pt (°F) Max RH (%) Min RH (%) Leaf Wet (hrs) Soil Temp (°F) Soil Moist1 (%) Fuel Moisture (%) Max Fuel Moisture (%) Min Fuel Moisture (%) Bat Volt Min Day (V)
6/23/19 83.1 56.8 0.00 58.78 663 0.20 1.3 6.4 WSW | 239 50.5 87 25 1.3 65.2 17.0 7 14 0 12.16
6/22/19 78.4 48.3 0.00 58.78 671 0.20 1.4 6.7 WSW | 253 50.8 85 40 0.6 65.2 17.2 9 19 0 12.13
6/21/19 71.5 48.7 0.00 58.78 640 0.18 1.4 7.6 WSW | 248 50.3 95 52 13.4 65.2 17.4 11 22 0 12.14
6/20/19 62.8 50.5 0.04 58.78 260 0.07 0.9 8.1 SW | 234 51.9 94 70 13.5 65.1 17.5 18 27 11 12.15
6/19/19 75.4 49.5 0.00 58.74 683 0.19 1.3 7.5 WSW | 241 53.4 95 52 10.1 65.0 17.5 8 16 0 12.17
6/18/19 78.3 48.9 0.00 58.74 653 0.19 1.1 6.5 SW | 235 53.1 94 47 12.6 64.8 17.7 8 17 0 12.18
6/17/19 72.6 49.0 0.01 58.74 647 0.18 1.2 6.7 SW | 228 51.4 95 51 12.8 64.7 18.0 9 18 0 12.17
6/16/19 71.8 49.9 0.00 58.73 600 0.17 1.2 7.6 WSW | 247 51.4 94 53 12.8 64.6 18.2 9 18 0 12.18
6/15/19 72.9 45.6 0.00 58.73 652 0.18 1.3 7.2 WSW | 256 51.0 95 53 11.7 64.4 18.4 9 17 0 12.15
6/14/19 71.2 49.8 0.00 58.73 621 0.17 1.4 7.9 NW | 322 52.0 94 56 10.7 64.1 18.8 8 15 0 12.17
6/13/19 72.6 52.8 0.00 58.73 612 0.17 1.2 7.9 W | 274 53.8 94 54 12.7 63.8 19.1 8 15 0 12.19
6/12/19 79.7 54.0 0.00 58.73 652 0.20 1.3 7.0 SW | 226 53.8 94 29 4.4 63.4 19.6 5 12 0 12.19
6/11/19 98.0 69.0 0.00 58.73 591 0.19 1.4 10.0 WSW | 241 50.2 60 12 0.0 63.0 20.0 4 8 0 12.18
6/10/19 95.6 70.1 0.00 58.73 618 0.20 1.6 9.1 ENE | 58 47.2 56 12 0.0 62.8 20.6 3 7 0 12.19
6/9/19 92.7 64.3 0.00 58.73 628 0.20 1.6 13.7 SW | 233 40.4 46 14 0.0 62.6 21.1 4 7 0 12.17
6/8/19 82.1 53.2 0.00 58.73 685 0.20 2.6 17.9 NNE | 24 33.1 64 14 0.0 62.5 21.6 5 11 0 12.14
6/7/19 75.3 41.9 0.00 58.73 679 0.18 1.5 9.5 NNE | 28 39.1 83 14 2.0 62.3 22.2 8 17 0 12.12
6/6/19 76.6 46.6 0.00 58.73 665 0.19 1.4 12.6 SSW | 202 44.7 95 15 8.5 62.0 22.9 9 19 0 12.15
6/5/19 80.7 51.6 0.00 58.73 664 0.20 1.3 7.0 NW | 320 56.1 93 42 3.8 61.7 23.6 9 18 0 12.16
6/4/19 84.2 55.8 0.00 58.73 654 0.20 1.1 5.9 WSW | 250 57.6 91 41 8.3 61.4 24.1 9 19 0 12.15
6/3/19 76.5 46.9 0.00 58.73 647 0.18 1.1 7.2 SW | 231 52.5 94 49 12.3 61.2 24.6 9 18 0 12.13
6/2/19 68.6 48.7 0.00 58.73 553 0.15 1.1 8.5 WNW | 291 50.4 95 56 12.6 60.9 25.1 11 18 0 12.18
6/1/19 69.4 50.7 0.00 58.73 651 0.18 1.3 7.9 SSW | 208 51.6 94 57 6.7 60.6 25.7 10 19 0 12.18
5/31/19 74.8 48.6 0.00 58.73 653 0.18 1.2 7.0 WSW | 245 52.4 95 51 9.5 60.4 26.3 9 17 0 12.13
5/30/19 70.5 49.0 0.00 58.73 580 0.16 1.2 9.0 W | 265 50.8 94 54 12.5 60.1 27.0 10 17 0 12.14
5/29/19 76.2 48.2 0.00 58.73 631 0.18 1.2 7.8 SW | 234 52.0 95 47 12.3 60.0 27.7 9 17 0 12.17
5/28/19 73.1 47.5 0.00 58.73 667 0.18 1.3 11.6 S | 190 50.1 93 48 5.4 59.9 28.5 10 19 0 12.16
5/27/19 63.7 42.8 0.00 58.73 316 0.08 1.0 11.0 W | 261 45.9 93 56 7.6 59.8 29.5 16 24 8 12.13
5/26/19 58.8 45.2 0.17 58.73 383 0.09 1.8 13.0 SW | 225 44.1 94 53 16.1 59.6 30.4 23 30 15 12.17
5/25/19 64.5 47.3 0.00 58.56 608 0.16 1.7 12.6 S | 183 46.6 94 51 10.2 59.4 28.9 12 20 0 12.15
Max 98.0 70.1 0.17 - 685 0.20 2.6 17.9 - 57.6 95 70 16.1 65.2 30.4 23 30 15 12.19
Avg - - - - - - 1.4 - - 49.6 - - - 62.5 22.2 9 17 1 -
Min 58.8 41.9 0.00 - 260 0.07 0.9 5.9 - 33.1 46 12 0.0 59.4 17.0 3 7 0 12.12